Etusivu
METAR-TAF:

METAR-TAF

Lentoasemat :

Wheaton Municipal Airport

Wheaton, Minnesota, Yhdysvallat

Leveyspiiri: 45-42N, Pituuspiiri: 096-30W, korkeus merenpinnasta: 313 m

Tämänhetkinen sää

Tämä raportti tehtiin 31 minuuttia sitten, kello 20.56 UTC
Tuuli 4 kn idästä/kaakosta
Lämpötila -9°C
Kosteus 79%
Ilmanpaine 1026 hPa
Näkyvyys: 16.1 km
Pilvistä 2200 ft:n korkeudessa

METAR: KETH 222056Z AUTO 12004KT 10SM OVC022 M09/M12 A3030 RMK AO2

Aika: 15:27 (21:27 UTC)


TAF: puuttuu

Säähavainnot ja -ennusteet yli 4000 lentoasemalta (METAR- ja TAF-raportit).

Käytössä olevat sääasemat on merkitty karttaan keltaisilla ja punaisilla pisteillä.

Aseta hiiri pisteen päälle nähdäksesi sääaseman nimen.

Klikkaa sitten nähdäksesi säähavainnot ja -ennusteet.

Kartan vaihtaminen: klikkaa mustalla rastilla varustettuja vihreitä pisteitä, niin voit zoomata sisään; viivalla varustettua vihreää pistettä, niin voit zoomata ulos tai vihreitä nuolia, niin pääset viereisille kartoille.


METAR-TAF: